createdAt,value
2022-10-10T00:01:05.407Z,42.11
2022-10-10T00:06:31.899Z,41.77
2022-10-10T00:11:54.961Z,41.84
2022-10-10T00:17:16.627Z,41.78
2022-10-10T00:22:38.364Z,41.58
2022-10-10T00:28:04.319Z,42.09
2022-10-10T00:33:26.051Z,42.07
2022-10-10T00:38:48.511Z,41.74
2022-10-10T00:44:13.748Z,41.89
2022-10-10T00:49:38.380Z,41.71
2022-10-10T00:55:00.095Z,42.08
2022-10-10T01:00:21.763Z,41.73
2022-10-10T01:05:45.310Z,41.84
2022-10-10T01:11:22.186Z,41.65
2022-10-10T01:17:06.709Z,41.65
2022-10-10T01:23:12.907Z,42.07
2022-10-10T01:29:08.590Z,41.76
2022-10-10T01:34:44.575Z,42.18
2022-10-10T01:40:18.373Z,42.15
2022-10-10T01:45:52.424Z,42.09
2022-10-10T01:51:22.913Z,42.13
2022-10-10T01:57:14.933Z,42.06
2022-10-10T02:02:52.347Z,42.16
2022-10-10T02:08:29.102Z,42.16
2022-10-10T02:14:02.595Z,42.19
2022-10-10T02:19:25.766Z,41.83
2022-10-10T02:24:47.467Z,42.09
2022-10-10T02:30:10.223Z,41.90
2022-10-10T02:35:38.592Z,42.00
2022-10-10T02:41:04.173Z,42.29
2022-10-10T02:46:25.769Z,41.89
2022-10-10T02:51:47.429Z,41.82
2022-10-10T02:57:09.172Z,41.89
2022-10-10T03:02:30.862Z,41.94
2022-10-10T03:07:52.558Z,42.10
2022-10-10T03:13:14.314Z,42.33
2022-10-10T03:18:36.038Z,41.92
2022-10-10T03:23:57.750Z,42.29
2022-10-10T03:29:19.462Z,42.17
2022-10-10T03:34:41.107Z,42.00
2022-10-10T03:40:02.780Z,42.37
2022-10-10T03:45:24.737Z,42.08
2022-10-10T03:50:46.387Z,42.23
2022-10-10T03:56:08.087Z,42.02
2022-10-10T04:01:30.927Z,42.12
2022-10-10T04:06:52.635Z,42.21
2022-10-10T04:12:14.327Z,42.00
2022-10-10T04:17:36.038Z,42.47
2022-10-10T04:22:57.815Z,42.28
2022-10-10T04:28:19.638Z,42.09
2022-10-10T04:33:41.341Z,41.98
2022-10-10T04:39:03.125Z,42.44
2022-10-10T04:44:24.802Z,42.23
2022-10-10T04:49:46.499Z,42.31
2022-10-10T04:55:08.299Z,42.14
2022-10-10T05:00:29.945Z,42.34
2022-10-10T05:05:52.275Z,42.44
2022-10-10T05:11:14.196Z,42.25
2022-10-10T05:16:35.811Z,42.07
2022-10-10T05:21:57.470Z,42.47
2022-10-10T05:27:19.139Z,42.20
2022-10-10T05:32:41.154Z,42.25
2022-10-10T05:38:03.110Z,42.33
2022-10-10T05:43:24.824Z,42.35
2022-10-10T05:48:46.487Z,42.07
2022-10-10T05:54:08.132Z,42.43
2022-10-10T05:59:30.240Z,42.39
2022-10-10T06:04:51.896Z,42.43
2022-10-10T06:10:13.553Z,42.04
2022-10-10T06:15:35.356Z,42.42
2022-10-10T06:21:01.952Z,42.12
2022-10-10T06:26:23.672Z,42.32
2022-10-10T06:31:45.259Z,42.00
2022-10-10T06:37:08.666Z,42.28
2022-10-10T06:42:30.365Z,42.11
2022-10-10T06:47:52.092Z,42.46
2022-10-10T06:53:13.802Z,42.21
2022-10-10T06:58:35.736Z,42.17
2022-10-10T07:03:57.417Z,42.02
2022-10-10T07:09:20.248Z,42.23
2022-10-10T07:14:41.899Z,41.71
2022-10-10T07:20:04.027Z,40.82
2022-10-10T07:25:25.790Z,39.84
2022-10-10T07:30:47.552Z,39.84
2022-10-10T07:36:09.258Z,39.49
2022-10-10T07:41:31.002Z,38.74
2022-10-10T07:46:52.632Z,38.96
2022-10-10T07:52:14.278Z,38.74
2022-10-10T07:57:36.365Z,39.05
2022-10-10T08:02:58.717Z,39.05
2022-10-10T08:08:20.342Z,38.64
2022-10-10T08:13:42.617Z,38.57
2022-10-10T08:19:04.824Z,39.23
2022-10-10T08:24:26.617Z,39.27
2022-10-10T08:29:48.302Z,40.01
2022-10-10T08:35:10.060Z,39.93
2022-10-10T08:40:32.166Z,39.99
2022-10-10T08:45:57.863Z,40.75
2022-10-10T08:51:31.962Z,40.87
2022-10-10T08:56:57.393Z,41.05
2022-10-10T09:08:34.470Z,41.24
2022-10-10T09:14:27.795Z,40.98
2022-10-10T09:20:11.884Z,41.34
2022-10-10T09:25:42.633Z,41.18
2022-10-10T09:31:26.804Z,41.23
2022-10-10T09:36:49.054Z,41.43
2022-10-10T09:42:14.041Z,41.84
2022-10-10T09:47:35.772Z,41.86
2022-10-10T09:52:58.482Z,41.47
2022-10-10T09:58:25.649Z,41.72
2022-10-10T10:04:27.294Z,41.59
2022-10-10T10:09:52.422Z,41.62
2022-10-10T10:15:26.472Z,42.11
2022-10-10T10:20:51.112Z,41.75
2022-10-10T10:26:46.417Z,41.99
2022-10-10T10:32:29.090Z,42.17
2022-10-10T10:37:50.712Z,41.70
2022-10-10T10:43:15.121Z,42.03
2022-10-10T10:48:41.128Z,42.24
2022-10-10T10:54:30.566Z,42.29
2022-10-10T11:05:45.434Z,42.13
2022-10-10T11:11:22.170Z,41.88
2022-10-10T11:22:37.249Z,42.09
2022-10-10T11:28:13.737Z,42.44
2022-10-10T11:33:59.727Z,42.08
2022-10-10T11:39:30.399Z,42.15
2022-10-10T11:45:17.279Z,42.31
2022-10-10T11:50:43.658Z,42.06
2022-10-10T11:56:12.291Z,41.96
2022-10-10T12:01:39.145Z,42.52
2022-10-10T12:07:06.722Z,42.24
2022-10-10T12:12:35.018Z,42.28
2022-10-10T12:17:57.124Z,42.16
2022-10-10T12:23:29.759Z,42.20
2022-10-10T12:28:59.679Z,42.30
2022-10-10T12:35:01.132Z,42.23
2022-10-10T12:40:23.089Z,42.34
2022-10-10T12:45:53.796Z,42.62
2022-10-10T12:51:22.032Z,42.60
2022-10-10T12:56:44.838Z,42.23
2022-10-10T13:02:16.717Z,42.65
2022-10-10T13:07:39.452Z,42.67
2022-10-10T13:13:07.003Z,42.25
2022-10-10T13:18:38.500Z,42.24
2022-10-10T13:24:04.930Z,42.33
2022-10-10T13:29:29.244Z,42.40
2022-10-10T13:34:55.741Z,42.57
2022-10-10T13:40:18.607Z,42.88
2022-10-10T13:45:56.625Z,42.49
2022-10-10T13:51:19.379Z,42.63
2022-10-10T13:56:41.693Z,43.17
2022-10-10T14:02:07.103Z,43.16
2022-10-10T14:07:30.858Z,42.95
2022-10-10T14:12:54.622Z,43.18
2022-10-10T14:18:19.566Z,43.28
2022-10-10T14:23:41.251Z,43.17
2022-10-10T14:29:03.302Z,43.51
2022-10-10T14:34:25.007Z,43.49
2022-10-10T14:39:47.191Z,43.50
2022-10-10T14:45:12.926Z,43.77
2022-10-10T14:50:38.111Z,43.48
2022-10-10T14:55:59.786Z,43.81
2022-10-10T15:01:21.843Z,43.90
2022-10-10T15:07:08.372Z,43.82
2022-10-10T15:12:25.343Z,43.84
2022-10-10T15:17:47.133Z,43.86
2022-10-10T15:23:09.217Z,43.81
2022-10-10T15:28:31.629Z,43.85
2022-10-10T15:33:55.477Z,43.98
2022-10-10T15:39:17.175Z,44.07
2022-10-10T15:44:44.983Z,44.55
2022-10-10T15:50:08.021Z,44.30
2022-10-10T15:55:29.659Z,44.29
2022-10-10T16:00:51.384Z,43.92
2022-10-10T16:06:13.348Z,43.82
2022-10-10T16:11:37.125Z,43.93
2022-10-10T16:17:01.806Z,43.30
2022-10-10T16:22:23.521Z,43.16
2022-10-10T16:27:45.194Z,43.09
2022-10-10T16:33:06.867Z,43.10
2022-10-10T16:38:28.513Z,43.28
2022-10-10T16:43:50.294Z,43.11
2022-10-10T16:49:16.425Z,43.28
2022-10-10T16:54:38.189Z,43.64
2022-10-10T16:59:59.881Z,43.37
2022-10-10T17:05:21.546Z,43.79
2022-10-10T17:10:44.692Z,43.49
2022-10-10T17:16:40.332Z,43.45
2022-10-10T17:21:50.213Z,43.57
2022-10-10T17:27:11.967Z,43.19
2022-10-10T17:32:33.651Z,43.63
2022-10-10T17:37:56.194Z,43.54
2022-10-10T17:43:17.877Z,43.91
2022-10-10T17:48:41.249Z,43.81
2022-10-10T17:54:03.553Z,43.50
2022-10-10T17:59:25.272Z,43.57
2022-10-10T18:04:47.322Z,43.31
2022-10-10T18:10:09.419Z,43.20
2022-10-10T18:15:31.104Z,43.36
2022-10-10T18:20:52.821Z,43.26
2022-10-10T18:26:17.991Z,43.03
2022-10-10T18:31:39.732Z,43.25
2022-10-10T18:37:01.474Z,43.42
2022-10-10T18:42:23.253Z,43.00
2022-10-10T18:47:44.916Z,43.28
2022-10-10T18:53:06.628Z,42.87
2022-10-10T18:58:29.891Z,42.95
2022-10-10T19:03:51.646Z,42.77
2022-10-10T19:09:15.477Z,43.01
2022-10-10T19:14:37.652Z,42.91
2022-10-10T19:19:59.312Z,43.13
2022-10-10T19:25:21.018Z,43.04
2022-10-10T19:30:44.655Z,43.12
2022-10-10T19:36:09.674Z,43.18
2022-10-10T19:41:31.399Z,43.06
2022-10-10T19:46:54.539Z,43.31
2022-10-10T19:52:16.329Z,43.40
2022-10-10T19:57:38.068Z,43.35
2022-10-10T20:02:59.818Z,43.53
2022-10-10T20:08:21.476Z,43.76
2022-10-10T20:13:43.224Z,43.58
2022-10-10T20:19:05.128Z,43.67
2022-10-10T20:24:26.805Z,44.10
2022-10-10T20:29:48.477Z,44.34
2022-10-10T20:35:10.200Z,43.91
2022-10-10T20:40:32.302Z,44.19
2022-10-10T20:45:53.942Z,44.14
2022-10-10T20:51:15.600Z,44.40
2022-10-10T20:56:37.237Z,44.59
2022-10-10T21:01:59.042Z,44.58
2022-10-10T21:07:20.749Z,44.24
2022-10-10T21:12:42.418Z,44.45
2022-10-10T21:18:04.157Z,44.44
2022-10-10T21:23:25.816Z,44.39
2022-10-10T21:28:49.986Z,44.65
2022-10-10T21:34:13.962Z,44.54
2022-10-10T21:39:35.773Z,44.26
2022-10-10T21:44:57.458Z,44.67
2022-10-10T21:50:19.187Z,44.25
2022-10-10T21:55:40.916Z,44.72
2022-10-10T22:01:08.586Z,44.42
2022-10-10T22:06:31.405Z,44.40
2022-10-10T22:11:53.202Z,44.57
2022-10-10T22:17:14.848Z,44.21
2022-10-10T22:22:43.138Z,44.61
2022-10-10T22:28:06.359Z,44.12
2022-10-10T22:33:28.164Z,44.13
2022-10-10T22:38:49.844Z,44.28
2022-10-10T22:44:11.791Z,44.58
2022-10-10T22:49:35.123Z,44.01
2022-10-10T22:54:56.813Z,43.93
2022-10-10T23:00:18.737Z,43.95
2022-10-10T23:05:42.218Z,44.00
2022-10-10T23:11:04.018Z,43.99
2022-10-10T23:16:25.676Z,44.16
2022-10-10T23:21:47.291Z,44.31
2022-10-10T23:27:09.001Z,43.87
2022-10-10T23:32:30.734Z,43.92
2022-10-10T23:37:52.376Z,43.90
2022-10-10T23:43:14.020Z,44.07
2022-10-10T23:48:35.698Z,43.79
2022-10-10T23:53:57.364Z,44.02
2022-10-10T23:59:19.065Z,44.24
